createdAt,value
2022-09-12T00:00:14.283Z,0
2022-09-12T00:01:15.543Z,0
2022-09-12T00:02:15.910Z,0
2022-09-12T00:03:15.885Z,0
2022-09-12T00:04:16.514Z,0
2022-09-12T00:05:17.847Z,0
2022-09-12T00:06:21.937Z,0
2022-09-12T00:07:18.507Z,0
2022-09-12T00:08:19.511Z,0
2022-09-12T00:09:19.408Z,0
2022-09-12T00:10:20.612Z,0
2022-09-12T00:11:20.219Z,0
2022-09-12T00:12:22.127Z,0
2022-09-12T00:13:22.389Z,0
2022-09-12T00:14:22.586Z,0
2022-09-12T00:15:23.294Z,0
2022-09-12T00:16:24.137Z,0
2022-09-12T00:17:24.887Z,0
2022-09-12T00:18:25.795Z,0
2022-09-12T00:19:26.407Z,0
2022-09-12T00:20:27.321Z,0
2022-09-12T00:21:27.632Z,0
2022-09-12T00:22:28.540Z,0
2022-09-12T00:23:28.728Z,0
2022-09-12T00:24:28.940Z,0
2022-09-12T00:25:29.647Z,0
2022-09-12T00:26:29.979Z,0
2022-09-12T00:27:30.910Z,0
2022-09-12T00:28:32.675Z,0
2022-09-12T00:29:31.572Z,0
2022-09-12T00:30:31.778Z,0
2022-09-12T00:31:32.115Z,0
2022-09-12T00:32:32.478Z,0
2022-09-12T00:33:33.390Z,0
2022-09-12T00:34:34.006Z,0
2022-09-12T00:35:35.015Z,0
2022-09-12T00:36:35.925Z,0
2022-09-12T00:37:36.845Z,0
2022-09-12T00:38:37.157Z,0
2022-09-12T00:39:37.959Z,0
2022-09-12T00:40:38.904Z,0
2022-09-12T00:41:38.814Z,0
2022-09-12T00:42:39.427Z,0
2022-09-12T00:43:40.661Z,0
2022-09-12T00:44:40.261Z,0
2022-09-12T00:45:41.441Z,0
2022-09-12T00:46:41.408Z,0
2022-09-12T00:47:42.598Z,0
2022-09-12T00:48:42.592Z,0
2022-09-12T00:49:42.953Z,0
2022-09-12T00:50:44.206Z,0
2022-09-12T00:51:44.798Z,0
2022-09-12T00:52:45.713Z,0
2022-09-12T00:53:47.203Z,0
2022-09-12T00:54:47.690Z,0
2022-09-12T00:55:48.409Z,0
2022-09-12T00:56:49.319Z,0
2022-09-12T00:57:49.663Z,0
2022-09-12T00:58:50.816Z,0
2022-09-12T00:59:50.717Z,0
2022-09-12T01:00:52.069Z,0
2022-09-12T01:01:52.530Z,0
2022-09-12T01:02:52.318Z,0
2022-09-12T01:03:53.223Z,0
2022-09-12T01:04:53.837Z,0
2022-09-12T01:05:54.578Z,0
2022-09-12T01:06:54.772Z,0
2022-09-12T01:07:54.984Z,0
2022-09-12T01:10:57.335Z,0
2022-09-12T01:11:57.955Z,0
2022-09-12T01:12:58.867Z,0
2022-09-12T01:14:00.177Z,0
2022-09-12T01:15:00.073Z,0
2022-09-12T01:16:01.055Z,0
2022-09-12T01:17:00.815Z,0
2022-09-12T01:18:01.700Z,0
2022-09-12T01:19:02.318Z,0
2022-09-12T01:20:02.224Z,0
2022-09-12T01:21:03.128Z,0
2022-09-12T01:22:04.040Z,0
2022-09-12T01:23:04.226Z,0
2022-09-12T01:24:05.121Z,0
2022-09-12T01:25:05.825Z,0
2022-09-12T01:26:06.554Z,0
2022-09-12T01:27:07.439Z,0
2022-09-12T01:28:07.351Z,0
2022-09-12T01:29:08.312Z,0
2022-09-12T01:30:08.214Z,0
2022-09-12T01:31:09.148Z,0
2022-09-12T01:32:10.261Z,0
2022-09-12T01:33:10.231Z,0
2022-09-12T01:34:10.417Z,0
2022-09-12T01:35:11.337Z,0
2022-09-12T01:36:12.051Z,0
2022-09-12T01:37:12.235Z,0
2022-09-12T01:38:12.849Z,0
2022-09-12T01:39:13.334Z,0
2022-09-12T01:40:13.782Z,0
2022-09-12T01:41:14.008Z,0
2022-09-12T01:42:14.338Z,0
2022-09-12T01:43:14.951Z,0
2022-09-12T01:44:15.911Z,0
2022-09-12T01:45:16.826Z,0
2022-09-12T01:46:17.012Z,0
2022-09-12T01:47:17.208Z,0
2022-09-12T01:48:17.420Z,0
2022-09-12T01:49:17.749Z,0
2022-09-12T01:50:18.939Z,0
2022-09-12T01:51:19.267Z,0
2022-09-12T01:52:19.621Z,0
2022-09-12T01:53:20.231Z,0
2022-09-12T01:54:20.563Z,0
2022-09-12T01:55:21.177Z,0
2022-09-12T01:56:22.177Z,0
2022-09-12T01:57:23.097Z,0
2022-09-12T01:58:22.704Z,0
2022-09-12T01:59:23.947Z,0
2022-09-12T02:00:23.266Z,0
2022-09-12T02:01:24.123Z,0
2022-09-12T02:02:24.346Z,0
2022-09-12T02:03:24.992Z,0
2022-09-12T02:04:25.302Z,0
2022-09-12T02:05:25.384Z,0
2022-09-12T02:06:26.704Z,0
2022-09-12T02:07:27.337Z,0
2022-09-12T02:08:28.546Z,0
2022-09-12T02:09:28.136Z,0
2022-09-12T02:10:32.455Z,0
2022-09-12T02:11:29.413Z,0
2022-09-12T02:12:30.029Z,0
2022-09-12T02:13:31.215Z,0
2022-09-12T02:14:31.470Z,0
2022-09-12T02:15:31.972Z,0
2022-09-12T02:16:32.033Z,0
2022-09-12T02:17:32.779Z,0
2022-09-12T02:18:34.348Z,0
2022-09-12T02:19:35.017Z,0
2022-09-12T02:20:57.580Z,0
2022-09-12T02:21:36.479Z,0
2022-09-12T02:22:37.085Z,0
2022-09-12T02:23:37.571Z,0
2022-09-12T02:24:37.510Z,0
2022-09-12T02:25:37.695Z,0
2022-09-12T02:26:38.677Z,0
2022-09-12T02:27:39.290Z,0
2022-09-12T02:28:40.161Z,0
2022-09-12T02:29:41.283Z,0
2022-09-12T02:30:41.633Z,0
2022-09-12T02:31:41.636Z,0
2022-09-12T02:32:42.252Z,0
2022-09-12T02:33:42.856Z,0
2022-09-12T02:34:43.465Z,0
2022-09-12T02:35:44.360Z,0
2022-09-12T02:36:45.800Z,0
2022-09-12T02:37:45.691Z,0
2022-09-12T02:38:46.256Z,0
2022-09-12T02:39:51.319Z,0
2022-09-12T02:40:47.689Z,0
2022-09-12T02:41:48.601Z,0
2022-09-12T02:42:49.192Z,0
2022-09-12T02:43:49.511Z,0
2022-09-12T02:44:50.458Z,0
2022-09-12T02:45:51.832Z,0
2022-09-12T02:46:51.272Z,0
2022-09-12T02:47:52.176Z,0
2022-09-12T02:48:53.160Z,0
2022-09-12T02:49:53.781Z,0
2022-09-12T02:50:53.972Z,0
2022-09-12T02:51:53.895Z,0
2022-09-12T02:52:54.206Z,0
2022-09-12T02:53:55.111Z,0
2022-09-12T02:54:55.302Z,0
2022-09-12T02:55:55.911Z,0
2022-09-12T02:56:55.764Z,0
2022-09-12T02:57:56.371Z,0
2022-09-12T02:58:57.732Z,0
2022-09-12T02:59:58.996Z,0
2022-09-12T03:00:59.127Z,0
2022-09-12T03:02:00.063Z,0
2022-09-12T03:03:00.402Z,0
2022-09-12T03:04:01.334Z,0
2022-09-12T03:05:01.962Z,0
2022-09-12T03:06:02.302Z,0
2022-09-12T03:07:03.302Z,0
2022-09-12T03:08:03.782Z,0
2022-09-12T03:09:03.400Z,0
2022-09-12T03:10:04.604Z,0
2022-09-12T03:11:04.515Z,0
2022-09-12T03:12:05.133Z,0
2022-09-12T03:13:05.766Z,0
2022-09-12T03:14:06.648Z,0
2022-09-12T03:15:07.923Z,0
2022-09-12T03:16:08.431Z,0
2022-09-12T03:17:09.028Z,0
2022-09-12T03:18:08.938Z,0
2022-09-12T03:19:09.867Z,0
2022-09-12T03:20:10.482Z,0
2022-09-12T03:21:11.487Z,0
2022-09-12T03:22:11.715Z,0
2022-09-12T03:23:12.345Z,0
2022-09-12T03:24:12.972Z,0
2022-09-12T03:25:14.164Z,0
2022-09-12T03:26:15.071Z,0
2022-09-12T03:27:15.646Z,0
2022-09-12T03:28:15.257Z,0
2022-09-12T03:29:15.890Z,0
2022-09-12T03:30:16.849Z,0
2022-09-12T03:31:17.133Z,0
2022-09-12T03:32:18.037Z,0
2022-09-12T03:33:17.667Z,0
2022-09-12T03:34:18.871Z,0
2022-09-12T03:35:22.804Z,0
2022-09-12T03:36:19.612Z,0
2022-09-12T03:37:20.331Z,0
2022-09-12T03:38:21.244Z,0
2022-09-12T03:39:21.550Z,0
2022-09-12T03:40:22.779Z,0
2022-09-12T03:41:23.662Z,0
2022-09-12T03:42:24.567Z,0
2022-09-12T03:43:24.477Z,0
2022-09-12T03:44:24.787Z,0
2022-09-12T03:45:25.812Z,0
2022-09-12T03:46:26.058Z,0
2022-09-12T03:47:26.775Z,0
2022-09-12T03:48:26.678Z,0
2022-09-12T03:49:26.707Z,0
2022-09-12T03:50:28.023Z,0
2022-09-12T03:51:28.614Z,0
2022-09-12T03:52:29.605Z,0
2022-09-12T03:53:29.940Z,0
2022-09-12T03:54:30.835Z,0
2022-09-12T03:55:31.460Z,0
2022-09-12T03:56:32.075Z,0
2022-09-12T03:57:32.482Z,0
2022-09-12T03:58:32.966Z,0
2022-09-12T03:59:32.873Z,0
2022-09-12T04:00:33.806Z,0
2022-09-12T04:01:34.154Z,0
2022-09-12T04:02:34.199Z,0
2022-09-12T04:03:35.107Z,0
2022-09-12T04:04:35.594Z,0
2022-09-12T04:05:35.210Z,0
2022-09-12T04:06:36.414Z,0
2022-09-12T04:07:36.428Z,0
2022-09-12T04:08:37.345Z,0
2022-09-12T04:09:37.960Z,0
2022-09-12T04:10:38.566Z,0
2022-09-12T04:11:39.218Z,0
2022-09-12T04:12:39.928Z,0
2022-09-12T04:13:40.574Z,0
2022-09-12T04:14:41.267Z,0
2022-09-12T04:15:42.219Z,0
2022-09-12T04:16:42.357Z,0
2022-09-12T04:17:43.109Z,0
2022-09-12T04:18:44.006Z,0
2022-09-12T04:19:44.615Z,0
2022-09-12T04:20:45.526Z,0
2022-09-12T04:21:46.140Z,0
2022-09-12T04:22:46.335Z,0
2022-09-12T04:23:46.227Z,0
2022-09-12T04:24:47.411Z,0
2022-09-12T04:25:47.754Z,0
2022-09-12T04:26:48.961Z,0
2022-09-12T04:27:49.662Z,4
2022-09-12T04:28:50.477Z,0
2022-09-12T04:29:51.381Z,0
2022-09-12T04:30:52.582Z,0
2022-09-12T04:31:51.987Z,4
2022-09-12T04:32:52.872Z,0
2022-09-12T04:33:54.069Z,4
2022-09-12T04:34:54.404Z,4
2022-09-12T04:35:55.590Z,4
2022-09-12T04:36:55.479Z,4
2022-09-12T04:37:56.224Z,4
2022-09-12T04:38:57.224Z,8
2022-09-12T04:39:57.719Z,8
2022-09-12T04:40:57.476Z,8
2022-09-12T04:41:58.386Z,8
2022-09-12T04:42:58.294Z,12
2022-09-12T04:43:58.488Z,12
2022-09-12T04:44:59.401Z,12
2022-09-12T04:46:00.122Z,12
2022-09-12T04:47:00.398Z,16
2022-09-12T04:48:01.109Z,20
2022-09-12T04:49:07.857Z,20
2022-09-12T04:50:03.049Z,24
2022-09-12T04:51:02.958Z,24
2022-09-12T04:52:04.167Z,28
2022-09-12T04:53:04.373Z,28
2022-09-12T04:54:04.554Z,32
2022-09-12T04:55:04.865Z,36
2022-09-12T04:56:06.084Z,36
2022-09-12T04:57:06.695Z,36
2022-09-12T04:58:07.402Z,40
2022-09-12T04:59:07.016Z,44
2022-09-12T05:00:12.734Z,48
2022-09-12T05:01:08.604Z,48
2022-09-12T05:02:09.046Z,52
2022-09-12T05:03:09.383Z,56
2022-09-12T05:04:09.706Z,60
2022-09-12T05:05:10.313Z,60
2022-09-12T05:06:10.644Z,64
2022-09-12T05:07:11.554Z,68
2022-09-12T05:08:11.560Z,72
2022-09-12T05:09:12.169Z,72
2022-09-12T05:10:12.819Z,76
2022-09-12T05:11:13.737Z,76
2022-09-12T05:12:16.125Z,80
2022-09-12T05:13:14.837Z,88
2022-09-12T05:14:15.749Z,88
2022-09-12T05:15:16.680Z,92
2022-09-12T05:16:17.829Z,92
2022-09-12T05:17:17.942Z,96
2022-09-12T05:18:18.646Z,100
2022-09-12T05:19:19.850Z,104
2022-09-12T05:20:20.331Z,108
2022-09-12T05:21:20.667Z,112
2022-09-12T05:22:21.278Z,116
2022-09-12T05:23:22.479Z,116
2022-09-12T05:24:22.396Z,120
2022-09-12T05:25:23.285Z,124
2022-09-12T05:26:24.177Z,128
2022-09-12T05:27:25.071Z,132
2022-09-12T05:28:26.079Z,136
2022-09-12T05:29:25.713Z,140
2022-09-12T05:30:26.929Z,148
2022-09-12T05:31:27.235Z,152
2022-09-12T05:32:28.432Z,156
2022-09-12T05:33:30.998Z,164
2022-09-12T05:34:29.211Z,168
2022-09-12T05:35:29.180Z,176
2022-09-12T05:36:30.110Z,176
2022-09-12T05:37:30.700Z,180
2022-09-12T05:38:31.702Z,188
2022-09-12T05:39:32.317Z,192
2022-09-12T05:40:33.342Z,200
2022-09-12T05:41:36.238Z,208
2022-09-12T05:42:33.862Z,216
2022-09-12T05:43:35.073Z,228
2022-09-12T05:44:35.307Z,240
2022-09-12T05:45:36.349Z,248
2022-09-12T05:46:36.662Z,256
2022-09-12T05:47:36.858Z,264
2022-09-12T05:48:37.145Z,276
2022-09-12T05:49:37.455Z,288
2022-09-12T05:50:37.646Z,292
2022-09-12T05:51:38.861Z,304
2022-09-12T05:52:38.776Z,312
2022-09-12T05:53:39.680Z,324
2022-09-12T05:54:42.594Z,328
2022-09-12T05:55:40.193Z,340
2022-09-12T05:56:40.242Z,320
2022-09-12T05:57:40.577Z,344
2022-09-12T05:58:41.587Z,356
2022-09-12T05:59:42.344Z,360
2022-09-12T06:00:45.125Z,368
2022-09-12T06:01:44.385Z,376
2022-09-12T06:02:44.593Z,380
2022-09-12T06:03:45.791Z,388
2022-09-12T06:04:45.710Z,396
2022-09-12T06:05:50.528Z,400
2022-09-12T06:06:47.311Z,408
2022-09-12T06:07:48.224Z,416
2022-09-12T06:08:49.502Z,496
2022-09-12T06:09:49.694Z,1000
2022-09-12T06:10:49.589Z,2336
2022-09-12T06:11:50.501Z,3240
2022-09-12T06:12:50.423Z,3440
2022-09-12T06:13:52.012Z,3592
2022-09-12T06:14:51.926Z,3512
2022-09-12T06:15:52.420Z,3356
2022-09-12T06:16:52.725Z,3644
2022-09-12T06:17:57.070Z,3656
2022-09-12T06:18:53.568Z,4164
2022-09-12T06:19:54.818Z,4356
2022-09-12T06:20:54.755Z,4256
2022-09-12T06:21:56.741Z,4196
2022-09-12T06:22:56.638Z,4180
2022-09-12T06:23:56.881Z,4536
2022-09-12T06:25:03.598Z,4060
2022-09-12T06:25:57.241Z,3240
2022-09-12T06:26:57.878Z,3348
2022-09-12T06:27:57.503Z,4500
2022-09-12T06:28:58.710Z,5480
2022-09-12T06:29:59.333Z,5584
2022-09-12T06:31:00.762Z,5644
2022-09-12T06:32:01.408Z,5912
2022-09-12T06:33:01.614Z,5920
2022-09-12T06:34:01.936Z,5308
2022-09-12T06:35:02.862Z,5544
2022-09-12T06:36:03.764Z,5520
2022-09-12T06:37:03.959Z,5032
2022-09-12T06:38:04.610Z,4460
2022-09-12T06:39:05.946Z,4156
2022-09-12T06:40:08.178Z,4280
2022-09-12T06:41:07.141Z,4292
2022-09-12T06:42:07.843Z,4588
2022-09-12T06:43:07.770Z,4908
2022-09-12T06:44:08.687Z,4804
2022-09-12T06:45:09.904Z,4448
2022-09-12T06:46:10.018Z,4236
2022-09-12T06:47:10.767Z,3860
2022-09-12T06:48:10.374Z,3516
2022-09-12T06:49:10.924Z,3496
2022-09-12T06:50:12.161Z,3224
2022-09-12T06:51:12.812Z,2948
2022-09-12T06:52:12.982Z,2840
2022-09-12T06:53:13.607Z,2936
2022-09-12T06:54:14.883Z,3080
2022-09-12T06:55:18.906Z,3300
2022-09-12T06:56:14.976Z,3260
2022-09-12T06:57:16.166Z,3232
2022-09-12T06:58:16.695Z,3504
2022-09-12T06:59:17.007Z,3736
2022-09-12T07:00:16.905Z,3736
2022-09-12T07:01:18.466Z,3428
2022-09-12T07:02:19.456Z,3084
2022-09-12T07:03:19.481Z,2864
2022-09-12T07:04:20.684Z,2652
2022-09-12T07:05:21.593Z,2440
2022-09-12T07:06:22.225Z,2316
2022-09-12T07:07:23.156Z,2260
2022-09-12T07:08:23.377Z,2468
2022-09-12T07:09:23.995Z,2444
2022-09-12T07:10:28.278Z,2448
2022-09-12T07:11:24.816Z,2604
2022-09-12T07:12:25.356Z,2480
2022-09-12T07:13:25.335Z,1976
2022-09-12T07:15:27.479Z,1576
2022-09-12T07:16:30.947Z,1572
2022-09-12T07:17:28.655Z,1632
2022-09-12T07:18:29.106Z,1596
2022-09-12T07:19:29.935Z,1536
2022-09-12T07:20:30.513Z,1504
2022-09-12T07:21:30.484Z,1556
2022-09-12T07:22:30.829Z,1576
2022-09-12T07:23:31.478Z,1532
2022-09-12T07:24:32.687Z,1616
2022-09-12T07:25:32.025Z,1852
2022-09-12T07:26:33.650Z,2156
2022-09-12T07:27:34.866Z,2320
2022-09-12T07:28:34.787Z,2376
2022-09-12T07:29:49.756Z,2336
2022-09-12T07:30:50.311Z,2016
2022-09-12T07:31:51.332Z,1880
2022-09-12T07:32:52.640Z,1944
2022-09-12T07:34:00.355Z,1856
2022-09-12T07:34:52.408Z,1788
2022-09-12T07:35:53.326Z,1948
2022-09-12T07:36:53.546Z,1860
2022-09-12T07:37:54.471Z,1556
2022-09-12T07:38:57.336Z,1548
2022-09-12T07:39:55.478Z,1644
2022-09-12T07:40:55.170Z,1784
2022-09-12T07:41:55.141Z,1808
2022-09-12T07:42:55.890Z,1652
2022-09-12T07:43:57.246Z,1700
2022-09-12T07:44:57.490Z,1740
2022-09-12T07:45:57.802Z,1412
2022-09-12T07:46:57.630Z,1228
2022-09-12T07:47:58.901Z,1172
2022-09-12T07:48:59.136Z,1164
2022-09-12T07:49:59.503Z,1132
2022-09-12T07:50:59.764Z,1064
2022-09-12T07:51:59.982Z,1012
2022-09-12T07:53:00.215Z,964
2022-09-12T07:54:00.838Z,944
2022-09-12T07:55:01.792Z,932
2022-09-12T07:56:01.735Z,912
2022-09-12T07:57:02.254Z,892
2022-09-12T07:58:03.494Z,884
2022-09-12T07:59:03.160Z,876
2022-09-12T08:00:04.988Z,872
2022-09-12T08:01:05.682Z,856
2022-09-12T08:02:05.192Z,860
2022-09-12T08:03:06.107Z,884
2022-09-12T08:04:07.040Z,844
2022-09-12T08:05:07.967Z,880
2022-09-12T08:06:08.470Z,872
2022-09-12T08:07:08.694Z,792
2022-09-12T08:08:09.407Z,812
2022-09-12T08:09:10.327Z,804
2022-09-12T08:10:11.642Z,1000
2022-09-12T08:11:12.141Z,1524
2022-09-12T08:12:12.334Z,1368
2022-09-12T08:13:12.603Z,944
2022-09-12T08:14:13.506Z,760
2022-09-12T08:15:14.384Z,716
2022-09-12T08:16:15.119Z,688
2022-09-12T08:17:15.113Z,672
2022-09-12T08:18:16.170Z,656
2022-09-12T08:19:16.105Z,660
2022-09-12T08:20:16.807Z,660
2022-09-12T08:21:17.611Z,684
2022-09-12T08:22:19.104Z,732
2022-09-12T08:23:19.602Z,752
2022-09-12T08:24:19.568Z,704
2022-09-12T08:25:19.576Z,680
2022-09-12T08:26:20.334Z,676
2022-09-12T08:27:20.978Z,688
2022-09-12T08:28:21.642Z,700
2022-09-12T08:29:23.133Z,692
2022-09-12T08:30:23.157Z,680
2022-09-12T08:31:23.611Z,708
2022-09-12T08:32:25.128Z,840
2022-09-12T08:33:25.675Z,800
2022-09-12T08:34:25.332Z,648
2022-09-12T08:35:26.273Z,632
2022-09-12T08:36:26.905Z,628
2022-09-12T08:37:28.103Z,632
2022-09-12T08:38:28.300Z,620
2022-09-12T08:39:28.690Z,616
2022-09-12T08:40:29.621Z,612
2022-09-12T08:41:30.155Z,608
2022-09-12T08:42:30.101Z,612
2022-09-12T08:43:31.081Z,612
2022-09-12T08:44:32.289Z,608
2022-09-12T08:45:32.603Z,604
2022-09-12T08:46:33.186Z,604
2022-09-12T08:47:33.391Z,604
2022-09-12T08:48:34.361Z,612
2022-09-12T08:49:34.906Z,612
2022-09-12T08:50:35.259Z,608
2022-09-12T08:51:34.892Z,612
2022-09-12T08:52:36.551Z,616
2022-09-12T08:53:37.506Z,604
2022-09-12T08:54:38.425Z,616
2022-09-12T08:55:38.669Z,636
2022-09-12T08:56:43.079Z,620
2022-09-12T08:57:39.720Z,608
2022-09-12T08:58:40.930Z,616
2022-09-12T08:59:41.878Z,612
2022-09-12T09:00:42.299Z,616
2022-09-12T09:01:43.829Z,620
2022-09-12T09:02:44.105Z,620
2022-09-12T09:03:44.576Z,624
2022-09-12T09:04:44.814Z,620
2022-09-12T09:05:45.018Z,628
2022-09-12T09:06:45.230Z,632
2022-09-12T09:07:46.139Z,636
2022-09-12T09:08:47.077Z,640
2022-09-12T09:09:48.006Z,636
2022-09-12T09:10:48.438Z,640
2022-09-12T09:11:49.662Z,636
2022-09-12T09:12:49.629Z,636
2022-09-12T09:13:50.938Z,636
2022-09-12T09:14:50.893Z,640
2022-09-12T09:15:52.565Z,640
2022-09-12T09:16:51.675Z,640
2022-09-12T09:17:52.895Z,648
2022-09-12T09:18:53.167Z,648
2022-09-12T09:19:56.438Z,640
2022-09-12T09:20:54.026Z,640
2022-09-12T09:21:55.238Z,640
2022-09-12T09:22:55.441Z,640
2022-09-12T09:23:55.471Z,668
2022-09-12T09:24:56.674Z,796
2022-09-12T09:25:56.920Z,708
2022-09-12T09:26:56.881Z,656
2022-09-12T09:27:57.529Z,720
2022-09-12T09:28:58.467Z,792
2022-09-12T09:29:59.691Z,776
2022-09-12T09:30:59.939Z,704
2022-09-12T09:32:00.243Z,700
2022-09-12T09:33:01.162Z,700
2022-09-12T09:34:01.543Z,704
2022-09-12T09:35:01.473Z,688
2022-09-12T09:36:02.130Z,688
2022-09-12T09:37:03.405Z,688
2022-09-12T09:38:09.134Z,680
2022-09-12T09:39:05.249Z,692
2022-09-12T09:40:05.169Z,692
2022-09-12T09:41:05.292Z,696
2022-09-12T09:42:05.485Z,708
2022-09-12T09:43:06.000Z,720
2022-09-12T09:44:09.164Z,716
2022-09-12T09:45:07.103Z,724
2022-09-12T09:46:08.248Z,748
2022-09-12T09:47:07.995Z,936
2022-09-12T09:48:08.949Z,1152
2022-09-12T09:49:10.268Z,1016
2022-09-12T09:50:09.972Z,1056
2022-09-12T09:51:11.075Z,1396
2022-09-12T09:52:12.189Z,2048
2022-09-12T09:53:12.689Z,2108
2022-09-12T09:54:12.305Z,1580
2022-09-12T09:55:13.497Z,1228
2022-09-12T09:56:13.725Z,1180
2022-09-12T09:57:14.329Z,1124
2022-09-12T09:58:15.524Z,996
2022-09-12T09:59:15.858Z,1000
2022-09-12T10:00:17.112Z,936
2022-09-12T10:01:18.106Z,936
2022-09-12T10:02:23.229Z,952
2022-09-12T10:03:24.608Z,952
2022-09-12T10:04:19.879Z,1200
2022-09-12T10:05:20.084Z,3528
2022-09-12T10:06:20.576Z,7312
2022-09-12T10:07:21.092Z,9248
2022-09-12T10:08:20.751Z,10464
2022-09-12T10:09:21.401Z,11092
2022-09-12T10:10:22.736Z,11768
2022-09-12T10:11:22.807Z,12152
2022-09-12T10:12:23.271Z,12372
2022-09-12T10:13:23.476Z,12544
2022-09-12T10:14:23.499Z,12640
2022-09-12T10:15:23.797Z,12776
2022-09-12T10:16:24.607Z,12836
2022-09-12T10:17:25.122Z,12924
2022-09-12T10:18:25.345Z,12936
2022-09-12T10:19:25.925Z,12996
2022-09-12T10:20:33.011Z,13028
2022-09-12T10:21:26.630Z,13048
2022-09-12T10:22:27.296Z,13096
2022-09-12T10:23:28.524Z,13128
2022-09-12T10:24:28.774Z,13184
2022-09-12T10:25:29.286Z,13236
2022-09-12T10:26:29.805Z,13176
2022-09-12T10:27:29.751Z,13132
2022-09-12T10:28:30.683Z,13096
2022-09-12T10:29:30.910Z,13188
2022-09-12T10:30:31.757Z,13276
2022-09-12T10:31:31.588Z,13120
2022-09-12T10:32:37.201Z,13008
2022-09-12T10:33:32.562Z,12996
2022-09-12T10:34:33.523Z,12964
2022-09-12T10:35:33.457Z,12904
2022-09-12T10:36:34.657Z,12812
2022-09-12T10:37:35.872Z,12800
2022-09-12T10:38:35.807Z,12900
2022-09-12T10:39:35.755Z,12884
2022-09-12T10:40:37.561Z,12864
2022-09-12T10:41:37.900Z,12852
2022-09-12T10:42:37.811Z,12876
2022-09-12T10:43:38.441Z,12828
2022-09-12T10:44:38.797Z,12852
2022-09-12T10:45:39.738Z,12872
2022-09-12T10:46:40.374Z,12768
2022-09-12T10:47:41.028Z,12780
2022-09-12T10:48:40.998Z,12744
2022-09-12T10:49:41.960Z,12736
2022-09-12T10:50:42.171Z,12732
2022-09-12T10:51:42.908Z,12760
2022-09-12T10:52:43.842Z,12820
2022-09-12T10:53:45.403Z,12936
2022-09-12T10:54:44.675Z,12980
2022-09-12T10:55:44.908Z,12988
2022-09-12T10:56:46.149Z,13100
2022-09-12T10:57:46.080Z,13296
2022-09-12T10:58:47.291Z,13256
2022-09-12T10:59:48.011Z,13356
2022-09-12T11:00:48.969Z,13376
2022-09-12T11:01:49.834Z,13372
2022-09-12T11:02:49.968Z,13320
2022-09-12T11:03:50.563Z,13508
2022-09-12T11:04:51.605Z,13368
2022-09-12T11:05:51.797Z,13456
2022-09-12T11:06:51.885Z,13380
2022-09-12T11:07:52.534Z,13340
2022-09-12T11:08:52.987Z,13452
2022-09-12T11:09:54.053Z,13556
2022-09-12T11:10:55.737Z,13596
2022-09-12T11:11:55.013Z,13264
2022-09-12T11:12:54.365Z,12724
2022-09-12T11:13:55.601Z,11972
2022-09-12T11:14:56.113Z,11516
2022-09-12T11:15:56.061Z,10844
2022-09-12T11:16:56.865Z,9624
2022-09-12T11:17:57.816Z,7640
2022-09-12T11:18:58.457Z,6512
2022-09-12T11:19:59.733Z,5644
2022-09-12T11:21:00.224Z,5044
2022-09-12T11:22:00.554Z,3780
2022-09-12T11:23:00.229Z,3864
2022-09-12T11:24:01.480Z,2880
2022-09-12T11:25:01.408Z,2440
2022-09-12T11:26:02.336Z,2672
2022-09-12T11:27:02.271Z,2624
2022-09-12T11:28:02.508Z,4988
2022-09-12T11:29:03.451Z,6668
2022-09-12T11:30:03.828Z,7068
2022-09-12T11:31:05.324Z,8464
2022-09-12T11:32:05.439Z,8768
2022-09-12T11:33:05.512Z,8648
2022-09-12T11:34:08.112Z,8660
2022-09-12T11:35:07.409Z,8880
2022-09-12T11:36:07.712Z,8768
2022-09-12T11:37:14.147Z,8320
2022-09-12T11:38:09.399Z,8084
2022-09-12T11:39:10.321Z,5152
2022-09-12T11:40:10.991Z,4000
2022-09-12T11:41:11.475Z,3944
2022-09-12T11:42:12.781Z,3120
2022-09-12T11:43:13.135Z,2480
2022-09-12T11:44:14.343Z,2204
2022-09-12T11:45:14.575Z,1948
2022-09-12T11:46:15.470Z,1660
2022-09-12T11:47:15.790Z,1648
2022-09-12T11:48:15.731Z,1704
2022-09-12T11:49:16.658Z,1816
2022-09-12T11:50:17.207Z,1896
2022-09-12T11:51:17.700Z,2312
2022-09-12T11:52:17.711Z,2648
2022-09-12T11:53:18.674Z,3704
2022-09-12T11:54:18.310Z,5600
2022-09-12T11:55:20.255Z,6980
2022-09-12T11:56:20.163Z,7316
2022-09-12T11:57:20.378Z,7408
2022-09-12T11:58:20.299Z,7420
2022-09-12T11:59:21.524Z,7544
2022-09-12T12:00:21.521Z,7648
2022-09-12T12:01:22.166Z,7724
2022-09-12T12:02:23.429Z,7748
2022-09-12T12:03:23.756Z,7604
2022-09-12T12:04:23.743Z,7492
2022-09-12T12:05:25.019Z,7404
2022-09-12T12:06:24.937Z,7444
2022-09-12T12:07:25.572Z,7480
2022-09-12T12:08:26.784Z,7308
2022-09-12T12:09:27.997Z,7296
2022-09-12T12:10:28.511Z,7328
2022-09-12T12:11:28.427Z,7156
2022-09-12T12:12:29.253Z,7408
2022-09-12T12:13:29.481Z,7564
2022-09-12T12:14:29.114Z,7628
2022-09-12T12:15:30.401Z,7384
2022-09-12T12:16:30.492Z,7664
2022-09-12T12:17:30.972Z,7600
2022-09-12T12:18:30.599Z,7256
2022-09-12T12:19:31.889Z,7112
2022-09-12T12:20:33.207Z,7344
2022-09-12T12:21:33.528Z,7244
2022-09-12T12:22:33.976Z,7252
2022-09-12T12:23:34.260Z,7284
2022-09-12T12:24:34.592Z,7056
2022-09-12T12:25:40.842Z,6944
2022-09-12T12:26:35.492Z,7068
2022-09-12T12:27:36.047Z,6956
2022-09-12T12:28:40.698Z,7168
2022-09-12T12:29:40.348Z,6956
2022-09-12T12:30:37.326Z,6984
2022-09-12T12:31:39.106Z,6748
2022-09-12T12:32:39.544Z,6908
2022-09-12T12:33:39.757Z,7360
2022-09-12T12:34:39.769Z,7672
2022-09-12T12:35:41.060Z,8192
2022-09-12T12:36:41.565Z,8208
2022-09-12T12:37:42.089Z,8192
2022-09-12T12:38:42.223Z,7676
2022-09-12T12:39:42.274Z,7524
2022-09-12T12:40:42.129Z,7900
2022-09-12T12:41:43.488Z,8480
2022-09-12T12:42:43.823Z,7152
2022-09-12T12:43:44.388Z,8496
2022-09-12T12:44:44.715Z,8436
2022-09-12T12:45:45.980Z,8476
2022-09-12T12:46:46.621Z,8372
2022-09-12T12:47:45.919Z,8432
2022-09-12T12:48:47.123Z,8528
2022-09-12T12:49:47.496Z,8616
2022-09-12T12:50:48.067Z,8760
2022-09-12T12:51:48.267Z,8596
2022-09-12T12:52:49.321Z,8144
2022-09-12T12:53:49.279Z,8252
2022-09-12T12:54:50.238Z,8352
2022-09-12T12:55:51.150Z,8224
2022-09-12T12:56:52.106Z,8096
2022-09-12T12:57:52.349Z,8104
2022-09-12T12:58:53.281Z,8160
2022-09-12T12:59:53.919Z,8096
2022-09-12T13:00:54.857Z,7768
2022-09-12T13:02:00.939Z,8396
2022-09-12T13:02:56.537Z,8188
2022-09-12T13:03:57.282Z,7912
2022-09-12T13:04:57.702Z,8072
2022-09-12T13:05:58.771Z,7516
2022-09-12T13:06:58.857Z,7324
2022-09-12T13:07:59.307Z,7336
2022-09-12T13:08:59.658Z,7340
2022-09-12T13:09:59.954Z,7912
2022-09-12T13:11:00.399Z,8236
2022-09-12T13:12:00.764Z,8540
2022-09-12T13:13:01.199Z,8592
2022-09-12T13:14:02.196Z,8296
2022-09-12T13:15:02.434Z,8740
2022-09-12T13:16:02.698Z,8732
2022-09-12T13:17:03.775Z,8736
2022-09-12T13:18:03.841Z,8488
2022-09-12T13:19:05.099Z,8396
2022-09-12T13:20:35.860Z,8716
2022-09-12T13:21:06.405Z,8812
2022-09-12T13:22:06.614Z,9040
2022-09-12T13:23:07.601Z,8960
2022-09-12T13:24:08.216Z,9168
2022-09-12T13:25:09.468Z,9440
2022-09-12T13:26:10.698Z,9320
2022-09-12T13:27:11.371Z,8648
2022-09-12T13:28:11.944Z,8184
2022-09-12T13:29:12.925Z,7184
2022-09-12T13:30:13.137Z,7336
2022-09-12T13:31:14.321Z,7520
2022-09-12T13:32:14.090Z,6800
2022-09-12T13:33:15.167Z,6512
2022-09-12T13:34:16.677Z,6136
2022-09-12T13:35:17.613Z,6460
2022-09-12T13:36:17.573Z,6396
2022-09-12T13:37:17.821Z,6232
2022-09-12T13:38:18.441Z,5828
2022-09-12T13:39:19.674Z,5648
2022-09-12T13:40:20.133Z,5324
2022-09-12T13:41:20.409Z,5116
2022-09-12T13:42:20.037Z,5156
2022-09-12T13:43:21.689Z,5644
2022-09-12T13:44:21.904Z,5780
2022-09-12T13:45:22.419Z,5704
2022-09-12T13:46:23.020Z,5180
2022-09-12T13:47:23.093Z,5116
2022-09-12T13:48:24.028Z,5124
2022-09-12T13:49:25.231Z,4680
2022-09-12T13:50:26.158Z,4764
2022-09-12T13:51:26.430Z,4712
2022-09-12T13:52:26.920Z,4780
2022-09-12T13:53:26.934Z,4736
2022-09-12T13:54:30.263Z,4880
2022-09-12T13:55:28.777Z,4808
2022-09-12T13:56:29.289Z,5140
2022-09-12T13:57:29.839Z,4904
2022-09-12T13:58:29.797Z,5220
2022-09-12T13:59:30.126Z,5104
2022-09-12T14:00:31.329Z,4692
2022-09-12T14:01:32.150Z,4680
2022-09-12T14:02:32.040Z,4676